sensor_id;sensor_type;location;lat;lon;timestamp;pressure;altitude;pressure_sealevel;temperature;humidity
37200;BME280;23096;50.892;16.746;2024-02-14T12:26:13;99611.98;;;9.46;64.05
37200;BME280;23096;50.892;16.746;2024-02-14T12:28:45;99614.65;;;9.49;64.13
37200;BME280;23096;50.892;16.746;2024-02-14T12:31:11;99612.08;;;9.57;64.08
37200;BME280;23096;50.892;16.746;2024-02-14T12:33:37;99609.44;;;9.60;63.88
37200;BME280;23096;50.892;16.746;2024-02-14T12:36:03;99604.96;;;9.61;63.79
37200;BME280;23096;50.892;16.746;2024-02-14T12:38:29;99606.67;;;9.62;63.70
37200;BME280;23096;50.892;16.746;2024-02-14T12:40:55;99611.16;;;9.60;63.58
37200;BME280;23096;50.892;16.746;2024-02-14T12:43:21;99611.05;;;9.57;63.48
37200;BME280;23096;50.892;16.746;2024-02-14T12:45:46;99613.07;;;9.59;63.47
37200;BME280;23096;50.892;16.746;2024-02-14T12:48:13;99612.65;;;9.63;63.46
37200;BME280;23096;50.892;16.746;2024-02-14T12:50:40;99610.64;;;9.68;63.51
37200;BME280;23096;50.892;16.746;2024-02-14T12:53:13;99601.81;;;9.71;63.51
37200;BME280;23096;50.892;16.746;2024-02-14T12:55:38;99597.83;;;9.73;63.45
37200;BME280;23096;50.892;16.746;2024-02-14T12:58:04;99599.54;;;9.73;63.34
37200;BME280;23096;50.892;16.746;2024-02-14T13:00:33;99601.44;;;9.72;63.17
37200;BME280;23096;50.892;16.746;2024-02-14T13:02:59;99599.59;;;9.71;63.22
37200;BME280;23096;50.892;16.746;2024-02-14T13:05:26;99603.58;;;9.70;63.15
37200;BME280;23096;50.892;16.746;2024-02-14T13:07:52;99601.90;;;9.68;63.08
37200;BME280;23096;50.892;16.746;2024-02-14T13:10:18;99598.52;;;9.65;62.91
37200;BME280;23096;50.892;16.746;2024-02-14T13:12:43;99598.55;;;9.64;62.95
37200;BME280;23096;50.892;16.746;2024-02-14T13:15:10;99594.25;;;9.65;62.94
37200;BME280;23096;50.892;16.746;2024-02-14T13:17:37;99594.38;;;9.66;62.95
37200;BME280;23096;50.892;16.746;2024-02-14T13:20:03;99594.74;;;9.65;62.78
37200;BME280;23096;50.892;16.746;2024-02-14T13:22:29;99594.38;;;9.66;62.86
37200;BME280;23096;50.892;16.746;2024-02-14T13:24:55;99593.16;;;9.67;62.87
37200;BME280;23096;50.892;16.746;2024-02-14T13:27:21;99596.36;;;9.69;62.80
37200;BME280;23096;50.892;16.746;2024-02-14T13:29:49;99592.56;;;9.71;62.77
37200;BME280;23096;50.892;16.746;2024-02-14T13:32:15;99589.23;;;9.74;62.79
37200;BME280;23096;50.892;16.746;2024-02-14T13:34:42;99585.20;;;9.77;62.80
37200;BME280;23096;50.892;16.746;2024-02-14T13:37:09;99585.11;;;9.81;62.76
37200;BME280;23096;50.892;16.746;2024-02-14T13:39:35;99583.41;;;9.81;62.64
37200;BME280;23096;50.892;16.746;2024-02-14T13:42:00;99580.60;;;9.84;62.63
37200;BME280;23096;50.892;16.746;2024-02-14T13:44:27;99579.71;;;9.85;62.59
37200;BME280;23096;50.892;16.746;2024-02-14T13:46:52;99580.37;;;9.86;62.56
37200;BME280;23096;50.892;16.746;2024-02-14T13:49:19;99576.29;;;9.85;62.53
37200;BME280;23096;50.892;16.746;2024-02-14T13:51:50;99574.06;;;9.85;62.40
37200;BME280;23096;50.892;16.746;2024-02-14T13:54:20;99569.45;;;9.83;62.34
37200;BME280;23096;50.892;16.746;2024-02-14T13:56:45;99572.10;;;9.80;62.23
37200;BME280;23096;50.892;16.746;2024-02-14T13:59:14;99573.86;;;9.78;62.18
37200;BME280;23096;50.892;16.746;2024-02-14T14:01:40;99568.08;;;9.76;62.12
37200;BME280;23096;50.892;16.746;2024-02-14T14:04:06;99570.99;;;9.76;62.07
37200;BME280;23096;50.892;16.746;2024-02-14T14:06:32;99571.70;;;9.75;62.01
37200;BME280;23096;50.892;16.746;2024-02-14T14:08:58;99569.02;;;9.73;61.97
37200;BME280;23096;50.892;16.746;2024-02-14T14:11:24;99575.23;;;9.71;61.98
37200;BME280;23096;50.892;16.746;2024-02-14T14:13:50;99570.64;;;9.69;61.95
37200;BME280;23096;50.892;16.746;2024-02-14T14:16:15;99569.78;;;9.69;61.89
37200;BME280;23096;50.892;16.746;2024-02-14T14:18:41;99570.13;;;9.69;61.80
37200;BME280;23096;50.892;16.746;2024-02-14T14:21:06;99572.37;;;9.69;61.79
37200;BME280;23096;50.892;16.746;2024-02-14T14:23:32;99574.95;;;9.68;61.84
37200;BME280;23096;50.892;16.746;2024-02-14T14:25:59;99570.70;;;9.67;61.86
37200;BME280;23096;50.892;16.746;2024-02-14T14:28:26;99576.21;;;9.65;61.74
37200;BME280;23096;50.892;16.746;2024-02-14T14:30:51;99573.70;;;9.63;61.73
37200;BME280;23096;50.892;16.746;2024-02-14T14:33:19;99574.78;;;9.61;61.72
37200;BME280;23096;50.892;16.746;2024-02-14T14:35:45;99572.75;;;9.60;61.70
37200;BME280;23096;50.892;16.746;2024-02-14T14:38:11;99577.58;;;9.58;61.67
37200;BME280;23096;50.892;16.746;2024-02-14T14:40:36;99575.04;;;9.57;61.68
37200;BME280;23096;50.892;16.746;2024-02-14T14:43:04;99576.64;;;9.54;61.65
37200;BME280;23096;50.892;16.746;2024-02-14T14:45:30;99577.21;;;9.52;61.70
37200;BME280;23096;50.892;16.746;2024-02-14T14:47:56;99578.66;;;9.48;61.73
37200;BME280;23096;50.892;16.746;2024-02-14T14:50:22;99575.14;;;9.45;61.62
37200;BME280;23096;50.892;16.746;2024-02-14T14:52:47;99568.55;;;9.40;61.70
37200;BME280;23096;50.892;16.746;2024-02-14T14:55:13;99576.46;;;9.39;61.74
37200;BME280;23096;50.892;16.746;2024-02-14T14:57:38;99575.82;;;9.37;61.76
37200;BME280;23096;50.892;16.746;2024-02-14T15:00:07;99581.86;;;9.35;61.72
37200;BME280;23096;50.892;16.746;2024-02-14T15:02:38;99586.56;;;9.31;61.79
37200;BME280;23096;50.892;16.746;2024-02-14T15:05:04;99590.90;;;9.29;61.83
37200;BME280;23096;50.892;16.746;2024-02-14T15:07:30;99597.30;;;9.27;61.81
37200;BME280;23096;50.892;16.746;2024-02-14T15:09:55;99602.98;;;9.26;61.88
37200;BME280;23096;50.892;16.746;2024-02-14T15:12:21;99602.16;;;9.23;61.94
37200;BME280;23096;50.892;16.746;2024-02-14T15:14:52;99601.53;;;9.20;61.99
37200;BME280;23096;50.892;16.746;2024-02-14T15:17:19;99599.67;;;9.19;61.99
37200;BME280;23096;50.892;16.746;2024-02-14T15:19:45;99597.66;;;9.17;62.05
37200;BME280;23096;50.892;16.746;2024-02-14T15:22:11;99606.25;;;9.16;61.91
37200;BME280;23096;50.892;16.746;2024-02-14T15:24:36;99609.90;;;9.13;62.01
37200;BME280;23096;50.892;16.746;2024-02-14T15:27:04;99609.81;;;9.10;62.00
37200;BME280;23096;50.892;16.746;2024-02-14T15:29:30;99604.39;;;9.06;62.09
37200;BME280;23096;50.892;16.746;2024-02-14T15:32:16;99603.10;;;9.02;62.12
37200;BME280;23096;50.892;16.746;2024-02-14T15:35:00;99606.11;;;8.97;62.12
37200;BME280;23096;50.892;16.746;2024-02-14T15:37:25;99610.67;;;8.92;62.28
37200;BME280;23096;50.892;16.746;2024-02-14T15:39:51;99614.52;;;8.87;62.32
37200;BME280;23096;50.892;16.746;2024-02-14T15:42:17;99616.19;;;8.81;62.37
37200;BME280;23096;50.892;16.746;2024-02-14T15:44:43;99615.40;;;8.78;62.30
37200;BME280;23096;50.892;16.746;2024-02-14T15:47:09;99617.33;;;8.75;62.44
37200;BME280;23096;50.892;16.746;2024-02-14T15:49:35;99619.60;;;8.73;62.45
37200;BME280;23096;50.892;16.746;2024-02-14T15:52:01;99622.08;;;8.68;62.54
37200;BME280;23096;50.892;16.746;2024-02-14T15:54:28;99624.52;;;8.66;62.70
37200;BME280;23096;50.892;16.746;2024-02-14T15:56:53;99624.02;;;8.64;62.67
37200;BME280;23096;50.892;16.746;2024-02-14T15:59:19;99623.73;;;8.61;62.71
37200;BME280;23096;50.892;16.746;2024-02-14T16:01:44;99619.54;;;8.56;62.71
37200;BME280;23096;50.892;16.746;2024-02-14T16:04:10;99618.73;;;8.54;62.86
37200;BME280;23096;50.892;16.746;2024-02-14T16:06:36;99624.27;;;8.51;62.94
37200;BME280;23096;50.892;16.746;2024-02-14T16:09:02;99624.80;;;8.49;62.99
37200;BME280;23096;50.892;16.746;2024-02-14T16:11:31;99625.39;;;8.46;63.07
37200;BME280;23096;50.892;16.746;2024-02-14T16:13:57;99631.23;;;8.45;63.15
37200;BME280;23096;50.892;16.746;2024-02-14T16:16:24;99631.08;;;8.43;63.20
37200;BME280;23096;50.892;16.746;2024-02-14T16:18:50;99632.45;;;8.43;63.16
37200;BME280;23096;50.892;16.746;2024-02-14T16:21:15;99630.40;;;8.42;63.31
37200;BME280;23096;50.892;16.746;2024-02-14T16:23:42;99632.45;;;8.42;63.38
37200;BME280;23096;50.892;16.746;2024-02-14T16:26:08;99635.53;;;8.43;63.46
37200;BME280;23096;50.892;16.746;2024-02-14T16:28:33;99643.40;;;8.43;63.50
37200;BME280;23096;50.892;16.746;2024-02-14T16:30:59;99645.95;;;8.44;63.50
37200;BME280;23096;50.892;16.746;2024-02-14T16:33:24;99653.84;;;8.43;63.53
37200;BME280;23096;50.892;16.746;2024-02-14T16:35:50;99654.88;;;8.42;63.58
37200;BME280;23096;50.892;16.746;2024-02-14T16:38:16;99655.05;;;8.41;63.53
37200;BME280;23096;50.892;16.746;2024-02-14T16:40:41;99654.08;;;8.38;63.65
37200;BME280;23096;50.892;16.746;2024-02-14T16:43:07;99658.04;;;8.36;63.61
37200;BME280;23096;50.892;16.746;2024-02-14T16:45:35;99653.16;;;8.30;63.70
37200;BME280;23096;50.892;16.746;2024-02-14T16:48:02;99654.02;;;8.30;63.88
37200;BME280;23096;50.892;16.746;2024-02-14T16:50:28;99652.34;;;8.29;63.94
37200;BME280;23096;50.892;16.746;2024-02-14T16:52:56;99653.20;;;8.27;63.94
37200;BME280;23096;50.892;16.746;2024-02-14T16:55:22;99656.14;;;8.25;64.09
37200;BME280;23096;50.892;16.746;2024-02-14T16:57:48;99659.07;;;8.24;64.16
37200;BME280;23096;50.892;16.746;2024-02-14T17:00:13;99662.17;;;8.23;64.20
37200;BME280;23096;50.892;16.746;2024-02-14T17:02:39;99663.73;;;8.21;64.21
37200;BME280;23096;50.892;16.746;2024-02-14T17:05:05;99664.48;;;8.18;64.28
37200;BME280;23096;50.892;16.746;2024-02-14T17:07:31;99665.54;;;8.16;64.40
37200;BME280;23096;50.892;16.746;2024-02-14T17:09:57;99666.58;;;8.15;64.45
37200;BME280;23096;50.892;16.746;2024-02-14T17:12:24;99669.14;;;8.15;64.57
37200;BME280;23096;50.892;16.746;2024-02-14T17:14:50;99669.50;;;8.14;64.57
37200;BME280;23096;50.892;16.746;2024-02-14T17:17:16;99673.10;;;8.13;64.66
37200;BME280;23096;50.892;16.746;2024-02-14T17:19:42;99672.42;;;8.13;64.74
37200;BME280;23096;50.892;16.746;2024-02-14T17:22:07;99668.84;;;8.12;64.84
37200;BME280;23096;50.892;16.746;2024-02-14T17:24:37;99673.14;;;8.12;64.90
37200;BME280;23096;50.892;16.746;2024-02-14T17:27:04;99676.56;;;8.12;64.98
37200;BME280;23096;50.892;16.746;2024-02-14T17:29:30;99678.10;;;8.12;64.98
37200;BME280;23096;50.892;16.746;2024-02-14T17:31:57;99679.98;;;8.12;65.10
37200;BME280;23096;50.892;16.746;2024-02-14T17:34:22;99679.63;;;8.13;65.23
37200;BME280;23096;50.892;16.746;2024-02-14T17:36:51;99677.73;;;8.13;65.17
37200;BME280;23096;50.892;16.746;2024-02-14T17:39:17;99682.16;;;8.16;65.31
37200;BME280;23096;50.892;16.746;2024-02-14T17:41:43;99684.70;;;8.16;65.31
37200;BME280;23096;50.892;16.746;2024-02-14T17:44:10;99680.27;;;8.16;65.37
37200;BME280;23096;50.892;16.746;2024-02-14T17:46:37;99683.48;;;8.17;65.58
37200;BME280;23096;50.892;16.746;2024-02-14T17:49:02;99683.95;;;8.20;65.44
37200;BME280;23096;50.892;16.746;2024-02-14T17:51:28;99691.27;;;8.23;65.64
37200;BME280;23096;50.892;16.746;2024-02-14T17:53:54;99691.23;;;8.25;65.58
37200;BME280;23096;50.892;16.746;2024-02-14T17:56:20;99692.74;;;8.28;65.57
37200;BME280;23096;50.892;16.746;2024-02-14T17:58:46;99694.08;;;8.30;65.58
37200;BME280;23096;50.892;16.746;2024-02-14T18:01:12;99693.04;;;8.31;65.73
37200;BME280;23096;50.892;16.746;2024-02-14T18:03:38;99690.94;;;8.34;65.75
37200;BME280;23096;50.892;16.746;2024-02-14T18:06:04;99689.55;;;8.35;65.78
37200;BME280;23096;50.892;16.746;2024-02-14T18:08:29;99690.72;;;8.36;65.76
37200;BME280;23096;50.892;16.746;2024-02-14T18:10:55;99685.91;;;8.37;65.86
37200;BME280;23096;50.892;16.746;2024-02-14T18:13:20;99684.73;;;8.37;65.79
37200;BME280;23096;50.892;16.746;2024-02-14T18:15:46;99679.73;;;8.38;65.87
37200;BME280;23096;50.892;16.746;2024-02-14T18:18:14;99676.61;;;8.40;65.88
37200;BME280;23096;50.892;16.746;2024-02-14T18:20:39;99675.24;;;8.41;65.91
37200;BME280;23096;50.892;16.746;2024-02-14T18:23:05;99673.55;;;8.40;65.91
37200;BME280;23096;50.892;16.746;2024-02-14T18:25:31;99673.89;;;8.40;65.94
37200;BME280;23096;50.892;16.746;2024-02-14T18:27:57;99672.17;;;8.40;66.04
37200;BME280;23096;50.892;16.746;2024-02-14T18:30:23;99672.51;;;8.43;66.05
37200;BME280;23096;50.892;16.746;2024-02-14T18:32:51;99670.08;;;8.45;66.05
37200;BME280;23096;50.892;16.746;2024-02-14T18:35:20;99664.94;;;8.46;66.00
37200;BME280;23096;50.892;16.746;2024-02-14T18:37:46;99662.19;;;8.45;66.04
37200;BME280;23096;50.892;16.746;2024-02-14T18:40:12;99665.95;;;8.46;66.06
37200;BME280;23096;50.892;16.746;2024-02-14T18:42:37;99672.58;;;8.49;66.14
37200;BME280;23096;50.892;16.746;2024-02-14T18:45:06;99671.16;;;8.52;66.13
37200;BME280;23096;50.892;16.746;2024-02-14T18:47:36;99671.27;;;8.55;66.26
37200;BME280;23096;50.892;16.746;2024-02-14T18:50:03;99675.17;;;8.57;66.30
37200;BME280;23096;50.892;16.746;2024-02-14T18:52:29;99674.13;;;8.59;66.39
37200;BME280;23096;50.892;16.746;2024-02-14T18:54:54;99673.73;;;8.62;66.39
37200;BME280;23096;50.892;16.746;2024-02-14T18:57:20;99677.27;;;8.65;66.27
37200;BME280;23096;50.892;16.746;2024-02-14T18:59:46;99675.66;;;8.69;66.45
37200;BME280;23096;50.892;16.746;2024-02-14T19:02:11;99675.95;;;8.73;66.42
37200;BME280;23096;50.892;16.746;2024-02-14T19:04:37;99675.38;;;8.76;66.55
37200;BME280;23096;50.892;16.746;2024-02-14T19:07:05;99678.42;;;8.77;66.49
37200;BME280;23096;50.892;16.746;2024-02-14T19:09:33;99679.60;;;8.79;66.53
37200;BME280;23096;50.892;16.746;2024-02-14T19:11:58;99678.05;;;8.80;66.57
37200;BME280;23096;50.892;16.746;2024-02-14T19:14:24;99674.77;;;8.81;66.65
37200;BME280;23096;50.892;16.746;2024-02-14T19:16:50;99670.31;;;8.81;66.58
37200;BME280;23096;50.892;16.746;2024-02-14T19:19:15;99674.77;;;8.80;66.44
37200;BME280;23096;50.892;16.746;2024-02-14T19:21:42;99672.88;;;8.81;66.55
37200;BME280;23096;50.892;16.746;2024-02-14T19:24:08;99668.06;;;8.82;66.60
37200;BME280;23096;50.892;16.746;2024-02-14T19:26:34;99671.46;;;8.84;66.58
37200;BME280;23096;50.892;16.746;2024-02-14T19:28:59;99673.16;;;8.85;66.64
37200;BME280;23096;50.892;16.746;2024-02-14T19:31:25;99671.61;;;8.86;66.64
37200;BME280;23096;50.892;16.746;2024-02-14T19:33:51;99669.70;;;8.87;66.65
37200;BME280;23096;50.892;16.746;2024-02-14T19:36:18;99671.90;;;8.88;66.70
37200;BME280;23096;50.892;16.746;2024-02-14T19:38:44;99668.61;;;8.90;66.77
37200;BME280;23096;50.892;16.746;2024-02-14T19:41:10;99676.28;;;8.92;66.63
37200;BME280;23096;50.892;16.746;2024-02-14T19:43:35;99674.55;;;8.93;66.77
37200;BME280;23096;50.892;16.746;2024-02-14T19:46:01;99678.81;;;8.95;66.73
37200;BME280;23096;50.892;16.746;2024-02-14T19:48:26;99681.35;;;8.96;66.79
37200;BME280;23096;50.892;16.746;2024-02-14T19:50:58;99679.09;;;8.98;66.86
37200;BME280;23096;50.892;16.746;2024-02-14T19:53:23;99680.13;;;8.97;66.77
37200;BME280;23096;50.892;16.746;2024-02-14T19:55:49;99677.91;;;8.97;66.84
37200;BME280;23096;50.892;16.746;2024-02-14T19:58:15;99679.43;;;8.97;66.83
37200;BME280;23096;50.892;16.746;2024-02-14T20:00:40;99683.17;;;9.00;66.93
37200;BME280;23096;50.892;16.746;2024-02-14T20:03:06;99683.47;;;9.02;66.84
37200;BME280;23096;50.892;16.746;2024-02-14T20:05:32;99689.27;;;9.04;66.83
37200;BME280;23096;50.892;16.746;2024-02-14T20:08:03;99689.93;;;9.05;66.84
37200;BME280;23096;50.892;16.746;2024-02-14T20:10:29;99693.01;;;9.06;66.80
37200;BME280;23096;50.892;16.746;2024-02-14T20:12:55;99695.61;;;9.04;66.79
37200;BME280;23096;50.892;16.746;2024-02-14T20:15:20;99697.66;;;9.04;66.90
37200;BME280;23096;50.892;16.746;2024-02-14T20:17:46;99701.91;;;9.06;66.94
37200;BME280;23096;50.892;16.746;2024-02-14T20:20:14;99702.42;;;9.06;66.81
37200;BME280;23096;50.892;16.746;2024-02-14T20:22:40;99700.73;;;9.04;66.79
37200;BME280;23096;50.892;16.746;2024-02-14T20:25:07;99699.92;;;9.02;66.81
37200;BME280;23096;50.892;16.746;2024-02-14T20:27:35;99702.02;;;9.01;66.82
37200;BME280;23096;50.892;16.746;2024-02-14T20:30:00;99699.80;;;8.99;66.81
37200;BME280;23096;50.892;16.746;2024-02-14T20:32:27;99697.94;;;8.98;66.84
37200;BME280;23096;50.892;16.746;2024-02-14T20:34:54;99701.37;;;8.98;66.85
37200;BME280;23096;50.892;16.746;2024-02-14T20:37:20;99698.44;;;8.98;66.86
37200;BME280;23096;50.892;16.746;2024-02-14T20:39:46;99692.43;;;8.99;66.81
37200;BME280;23096;50.892;16.746;2024-02-14T20:42:12;99693.63;;;9.00;66.95
37200;BME280;23096;50.892;16.746;2024-02-14T20:44:40;99694.45;;;9.02;66.95
37200;BME280;23096;50.892;16.746;2024-02-14T20:47:05;99693.85;;;9.07;66.99
37200;BME280;23096;50.892;16.746;2024-02-14T20:49:31;99692.77;;;9.08;66.87
37200;BME280;23096;50.892;16.746;2024-02-14T20:51:57;99694.15;;;9.09;66.87
37200;BME280;23096;50.892;16.746;2024-02-14T20:54:22;99691.73;;;9.10;66.87
37200;BME280;23096;50.892;16.746;2024-02-14T20:56:48;99691.71;;;9.10;66.88
37200;BME280;23096;50.892;16.746;2024-02-14T20:59:14;99688.42;;;9.11;66.92
37200;BME280;23096;50.892;16.746;2024-02-14T21:01:40;99686.37;;;9.12;66.86
37200;BME280;23096;50.892;16.746;2024-02-14T21:04:05;99687.06;;;9.11;66.91
37200;BME280;23096;50.892;16.746;2024-02-14T21:06:31;99689.62;;;9.12;66.86
37200;BME280;23096;50.892;16.746;2024-02-14T21:08:56;99691.45;;;9.14;66.92
37200;BME280;23096;50.892;16.746;2024-02-14T21:11:23;99690.59;;;9.15;66.96
37200;BME280;23096;50.892;16.746;2024-02-14T21:13:49;99687.33;;;9.15;66.95
37200;BME280;23096;50.892;16.746;2024-02-14T21:16:15;99689.70;;;9.17;66.99
37200;BME280;23096;50.892;16.746;2024-02-14T21:18:40;99686.39;;;9.20;67.04
37200;BME280;23096;50.892;16.746;2024-02-14T21:21:06;99680.17;;;9.22;67.07
37200;BME280;23096;50.892;16.746;2024-02-14T21:23:31;99676.91;;;9.23;67.01
37200;BME280;23096;50.892;16.746;2024-02-14T21:25:57;99676.85;;;9.26;67.04
37200;BME280;23096;50.892;16.746;2024-02-14T21:28:23;99669.63;;;9.27;67.00
37200;BME280;23096;50.892;16.746;2024-02-14T21:30:48;99671.50;;;9.28;67.01
37200;BME280;23096;50.892;16.746;2024-02-14T21:33:14;99668.23;;;9.28;66.97
37200;BME280;23096;50.892;16.746;2024-02-14T21:35:39;99664.11;;;9.29;66.96
37200;BME280;23096;50.892;16.746;2024-02-14T21:38:05;99663.08;;;9.29;66.97
37200;BME280;23096;50.892;16.746;2024-02-14T21:40:31;99659.98;;;9.30;67.07
37200;BME280;23096;50.892;16.746;2024-02-14T21:42:57;99664.06;;;9.31;67.08
37200;BME280;23096;50.892;16.746;2024-02-14T21:45:24;99660.60;;;9.33;67.08
37200;BME280;23096;50.892;16.746;2024-02-14T21:47:52;99658.34;;;9.34;67.10
37200;BME280;23096;50.892;16.746;2024-02-14T21:50:19;99664.28;;;9.37;67.14
37200;BME280;23096;50.892;16.746;2024-02-14T21:52:44;99664.56;;;9.40;67.17
37200;BME280;23096;50.892;16.746;2024-02-14T21:55:10;99669.31;;;9.42;67.23
37200;BME280;23096;50.892;16.746;2024-02-14T21:57:36;99668.44;;;9.43;67.24
37200;BME280;23096;50.892;16.746;2024-02-14T22:00:02;99669.77;;;9.46;67.29
37200;BME280;23096;50.892;16.746;2024-02-14T22:02:38;99672.65;;;9.48;67.27
37200;BME280;23096;50.892;16.746;2024-02-14T22:05:05;99676.58;;;9.48;67.32
37200;BME280;23096;50.892;16.746;2024-02-14T22:07:30;99679.64;;;9.49;67.34
37200;BME280;23096;50.892;16.746;2024-02-14T22:09:57;99681.70;;;9.49;67.30
37200;BME280;23096;50.892;16.746;2024-02-14T22:12:23;99683.80;;;9.48;67.29
37200;BME280;23096;50.892;16.746;2024-02-14T22:14:49;99686.39;;;9.46;67.29
37200;BME280;23096;50.892;16.746;2024-02-14T22:17:18;99690.33;;;9.46;67.29
37200;BME280;23096;50.892;16.746;2024-02-14T22:19:43;99692.77;;;9.45;67.40
37200;BME280;23096;50.892;16.746;2024-02-14T22:22:09;99698.30;;;9.42;67.40
37200;BME280;23096;50.892;16.746;2024-02-14T22:24:38;99700.07;;;9.39;67.32
37200;BME280;23096;50.892;16.746;2024-02-14T22:27:04;99700.81;;;9.36;67.40
37200;BME280;23096;50.892;16.746;2024-02-14T22:29:32;99700.23;;;9.32;67.31
37200;BME280;23096;50.892;16.746;2024-02-14T22:31:57;99705.42;;;9.28;67.31
37200;BME280;23096;50.892;16.746;2024-02-14T22:34:23;99701.23;;;9.24;67.33
37200;BME280;23096;50.892;16.746;2024-02-14T22:36:48;99701.11;;;9.21;67.40
37200;BME280;23096;50.892;16.746;2024-02-14T22:39:14;99699.59;;;9.20;67.53
37200;BME280;23096;50.892;16.746;2024-02-14T22:41:40;99700.45;;;9.20;67.53
37200;BME280;23096;50.892;16.746;2024-02-14T22:44:07;99699.74;;;9.21;67.68
37200;BME280;23096;50.892;16.746;2024-02-14T22:46:36;99699.73;;;9.22;67.66
37200;BME280;23096;50.892;16.746;2024-02-14T22:49:04;99698.00;;;9.22;67.64
37200;BME280;23096;50.892;16.746;2024-02-14T22:51:30;99696.63;;;9.23;67.76
37200;BME280;23096;50.892;16.746;2024-02-14T22:53:55;99697.98;;;9.23;67.75
37200;BME280;23096;50.892;16.746;2024-02-14T22:56:21;99696.95;;;9.23;67.83
37200;BME280;23096;50.892;16.746;2024-02-14T22:58:46;99696.09;;;9.24;67.83
37200;BME280;23096;50.892;16.746;2024-02-14T23:01:13;99693.67;;;9.24;67.90
37200;BME280;23096;50.892;16.746;2024-02-14T23:03:38;99693.33;;;9.25;67.90
37200;BME280;23096;50.892;16.746;2024-02-14T23:06:05;99693.46;;;9.27;68.03
37200;BME280;23096;50.892;16.746;2024-02-14T23:08:31;99693.40;;;9.30;67.97
37200;BME280;23096;50.892;16.746;2024-02-14T23:10:56;99694.16;;;9.34;68.03
37200;BME280;23096;50.892;16.746;2024-02-14T23:13:56;99693.39;;;9.39;68.05
37200;BME280;23096;50.892;16.746;2024-02-14T23:16:21;99697.23;;;9.45;68.24
37200;BME280;23096;50.892;16.746;2024-02-14T23:18:47;99697.17;;;9.47;68.11
37200;BME280;23096;50.892;16.746;2024-02-14T23:21:13;99699.35;;;9.50;68.13
37200;BME280;23096;50.892;16.746;2024-02-14T23:23:38;99695.38;;;9.51;68.10
37200;BME280;23096;50.892;16.746;2024-02-14T23:26:05;99699.09;;;9.54;68.05
37200;BME280;23096;50.892;16.746;2024-02-14T23:28:31;99700.77;;;9.56;68.08
37200;BME280;23096;50.892;16.746;2024-02-14T23:30:57;99696.78;;;9.58;68.14
37200;BME280;23096;50.892;16.746;2024-02-14T23:33:22;99696.27;;;9.58;68.05
37200;BME280;23096;50.892;16.746;2024-02-14T23:35:48;99693.84;;;9.59;68.10
37200;BME280;23096;50.892;16.746;2024-02-14T23:38:13;99695.36;;;9.60;68.04
37200;BME280;23096;50.892;16.746;2024-02-14T23:40:39;99689.50;;;9.62;68.09
37200;BME280;23096;50.892;16.746;2024-02-14T23:43:05;99690.99;;;9.64;68.11
37200;BME280;23096;50.892;16.746;2024-02-14T23:45:31;99693.00;;;9.67;68.11
37200;BME280;23096;50.892;16.746;2024-02-14T23:47:57;99693.46;;;9.70;68.16
37200;BME280;23096;50.892;16.746;2024-02-14T23:50:24;99689.93;;;9.74;68.12
37200;BME280;23096;50.892;16.746;2024-02-14T23:52:54;99688.02;;;9.75;68.15
37200;BME280;23096;50.892;16.746;2024-02-14T23:55:19;99688.81;;;9.78;68.14
37200;BME280;23096;50.892;16.746;2024-02-14T23:57:46;99692.73;;;9.80;68.06
